Time;durP1;ratioP1;P1;durP2;ratioP2;P2;SDS_P1;SDS_P2;PMS_P1;PMS_P2;Temp;Humidity;BMP_temperature;BMP_pressure;BME280_temperature;BME280_humidity;BME280_pressure;Samples;Min_cycle;Max_cycle;Signal;HPM_P1;HPM_P2
2022/10/19 00:01:18;;;;;;;;;;;;;;;29.47;28.35;101354.25;5057829;28;1976;-39
2022/10/19 00:03:44;;;;;;;;;;;;;;;29.51;28.48;101352.03;5058141;28;1175;-39
2022/10/19 00:06:30;;;;;;;;;;;;;;;29.86;27.51;101349.66;5057918;28;1124;-39
2022/10/19 00:08:56;;;;;;;;;;;;;;;29.58;28.20;101344.81;5057443;28;1578;-39
2022/10/19 00:11:22;;;;;;;;;;;;;;;29.58;28.27;101334.81;5057911;28;1088;-39
2022/10/19 00:13:48;;;;;;;;;;;;;;;29.22;28.79;101343.66;5057696;28;1283;-39
2022/10/19 00:16:13;;;;;;;;;;;;;;;29.41;28.70;101333.31;5057491;28;1211;-39
2022/10/19 00:18:39;;;;;;;;;;;;;;;29.88;27.49;101335.91;5057883;28;1155;-39
2022/10/19 00:21:05;;;;;;;;;;;;;;;29.32;28.61;101335.25;5056728;28;1973;-39
2022/10/19 00:23:30;;;;;;;;;;;;;;;29.32;28.61;101337.97;5057588;28;1112;-40
2022/10/19 00:25:55;;;;;;;;;;;;;;;29.28;28.89;101325.81;5057299;28;992;-40
2022/10/19 00:28:21;;;;;;;;;;;;;;;29.62;28.46;101329.91;5057591;28;1139;-40
2022/10/19 00:30:46;;;;;;;;;;;;;;;29.81;27.68;101319.53;5057280;28;1124;-40
2022/10/19 00:33:11;;;;;;;;;;;;;;;29.16;29.27;101312.69;5057427;28;1155;-38
2022/10/19 00:35:40;;;;;;;;;;;;;;;29.08;29.61;101310.91;5071176;28;1187;-38
2022/10/19 00:38:05;;;;;;;;;;;;;;;29.14;29.73;101300.38;5060068;28;921;-38
2022/10/19 00:40:39;;;;;;;;;;;;;;;29.40;29.07;101305.34;5071205;28;1226;-38
2022/10/19 00:43:08;;;;;;;;;;;;;;;29.77;28.02;101300.06;5057243;28;1910;-39
2022/10/19 00:45:34;;;;;;;;;;;;;;;29.15;29.44;101294.75;5039379;28;1148;-38
2022/10/19 00:47:59;;;;;;;;;;;;;;;29.26;29.47;101292.66;5057256;28;1092;-39
2022/10/19 00:50:24;;;;;;;;;;;;;;;29.25;29.27;101288.22;5058425;28;921;-40
2022/10/19 00:52:49;;;;;;;;;;;;;;;29.54;28.85;101279.31;5057239;28;1115;-39
2022/10/19 00:55:15;;;;;;;;;;;;;;;29.58;28.33;101271.63;5038931;28;1294;-39
2022/10/19 00:57:40;;;;;;;;;;;;;;;29.24;28.77;101279.28;5043820;28;1105;-40
2022/10/19 01:00:06;;;;;;;;;;;;;;;29.08;29.33;101270.28;5076686;28;1151;-40
2022/10/19 01:02:31;;;;;;;;;;;;;;;29.14;29.32;101270.56;5062826;28;1898;-38
2022/10/19 01:04:56;;;;;;;;;;;;;;;29.52;28.73;101273.22;5076603;28;1092;-38
2022/10/19 01:07:21;;;;;;;;;;;;;;;29.58;28.22;101283.31;5076553;28;1230;-39
2022/10/19 01:09:47;;;;;;;;;;;;;;;29.39;28.31;101273.03;5059331;28;1168;-40
2022/10/19 01:12:31;;;;;;;;;;;;;;;29.17;28.80;101276.47;5077267;28;1167;-40
2022/10/19 01:15:14;;;;;;;;;;;;;;;29.32;28.79;101264.81;5057029;28;1080;-40
2022/10/19 01:17:43;;;;;;;;;;;;;;;29.59;27.88;101259.78;5056032;28;1156;-40
2022/10/19 01:20:26;;;;;;;;;;;;;;;29.49;28.05;101251.91;5056301;28;1128;-39
2022/10/19 01:22:58;;;;;;;;;;;;;;;29.36;28.49;101246.31;5056237;28;1977;-39
2022/10/19 01:25:23;;;;;;;;;;;;;;;29.05;29.13;101251.69;5056520;28;1139;-39
2022/10/19 01:27:48;;;;;;;;;;;;;;;29.26;28.81;101244.69;5056255;28;1152;-38
2022/10/19 01:30:15;;;;;;;;;;;;;;;29.76;27.45;101244.16;5056588;28;1190;-39
2022/10/19 01:32:46;;;;;;;;;;;;;;;29.49;28.11;101243.78;5038656;28;1211;-40
2022/10/19 01:35:30;;;;;;;;;;;;;;;29.29;28.75;101243.50;5070397;28;1116;-39
2022/10/19 01:37:55;;;;;;;;;;;;;;;29.17;28.78;101243.09;5055815;28;1163;-38
2022/10/19 01:40:28;;;;;;;;;;;;;;;29.38;28.37;101239.66;5056469;28;1163;-39
2022/10/19 01:42:59;;;;;;;;;;;;;;;29.65;27.57;101239.22;5056996;28;1897;-39
2022/10/19 01:45:29;;;;;;;;;;;;;;;29.40;28.32;101224.06;5060332;28;1167;-39
2022/10/19 01:47:55;;;;;;;;;;;;;;;29.19;28.77;101233.78;5038249;28;1172;-39
2022/10/19 01:50:27;;;;;;;;;;;;;;;29.29;28.70;101227.25;5055846;28;1195;-39
2022/10/19 01:52:52;;;;;;;;;;;;;;;29.54;28.16;101219.69;5038261;28;1128;-39
2022/10/19 01:55:18;;;;;;;;;;;;;;;29.72;27.50;101223.03;5055929;28;1148;-39
2022/10/19 01:57:47;;;;;;;;;;;;;;;29.53;28.20;101220.69;5037812;28;1124;-38
2022/10/19 02:00:13;;;;;;;;;;;;;;;29.12;28.73;101219.28;5038724;28;1179;-38
2022/10/19 02:02:42;;;;;;;;;;;;;;;29.19;28.61;101219.38;5038074;28;1971;-38
2022/10/19 02:05:08;;;;;;;;;;;;;;;29.60;27.81;101214.53;5048319;28;893;-38
2022/10/19 02:07:33;;;;;;;;;;;;;;;29.59;27.63;101211.00;5055770;28;1211;-39
2022/10/19 02:09:58;;;;;;;;;;;;;;;29.57;27.90;101215.72;5038366;28;1207;-40
2022/10/19 02:12:23;;;;;;;;;;;;;;;29.00;28.75;101201.78;5055928;28;1331;-40
2022/10/19 02:14:50;;;;;;;;;;;;;;;29.19;28.46;101205.84;5055705;28;1124;-40
2022/10/19 02:17:19;;;;;;;;;;;;;;;29.60;27.78;101201.81;5055980;28;1116;-39
2022/10/19 02:19:45;;;;;;;;;;;;;;;29.64;27.42;101203.16;5037472;28;1152;-40
2022/10/19 02:22:10;;;;;;;;;;;;;;;29.49;27.87;101196.84;5055923;28;1924;-39
2022/10/19 02:24:35;;;;;;;;;;;;;;;29.25;28.31;101204.25;5056321;28;1065;-38
2022/10/19 02:27:03;;;;;;;;;;;;;;;29.37;27.98;101199.19;5055775;28;978;-39
2022/10/19 02:29:28;;;;;;;;;;;;;;;29.89;27.35;101200.09;5070262;28;1100;-39
2022/10/19 02:31:54;;;;;;;;;;;;;;;29.56;27.37;101195.09;5075990;28;1143;-39
2022/10/19 02:34:19;;;;;;;;;;;;;;;29.41;27.79;101195.91;5067107;28;1179;-39
2022/10/19 02:36:44;;;;;;;;;;;;;;;29.17;28.20;101189.78;5051985;28;1235;-39
2022/10/19 02:39:10;;;;;;;;;;;;;;;29.49;27.87;101191.44;5055694;28;1021;-40
2022/10/19 02:41:39;;;;;;;;;;;;;;;29.91;27.09;101189.88;5055616;28;2030;-39
2022/10/19 02:44:06;;;;;;;;;;;;;;;29.88;26.50;101192.16;5042587;28;1140;-39
2022/10/19 02:46:39;;;;;;;;;;;;;;;29.53;27.66;101196.28;5057241;28;2170;-38
2022/10/19 02:49:05;;;;;;;;;;;;;;;29.35;28.05;101191.25;5052311;28;1969;-37
2022/10/19 02:51:30;;;;;;;;;;;;;;;29.39;27.96;101183.59;5069684;28;1837;-39
2022/10/19 02:53:55;;;;;;;;;;;;;;;29.77;27.91;101186.19;5072651;28;1822;-39
2022/10/19 02:56:21;;;;;;;;;;;;;;;28.91;25.50;101191.00;5077662;28;1804;-35
2022/10/19 02:58:47;;;;;;;;;;;;;;;26.57;29.19;101190.38;5059923;28;2210;-35
2022/10/19 03:01:13;;;;;;;;;;;;;;;26.71;29.46;101184.31;5065566;28;1924;-34
2022/10/19 03:03:38;;;;;;;;;;;;;;;26.92;28.20;101177.56;5062555;28;1040;-34
2022/10/19 03:06:03;;;;;;;;;;;;;;;27.21;27.96;101176.16;5058190;28;1219;-34
2022/10/19 03:08:29;;;;;;;;;;;;;;;27.19;27.58;101178.19;5058038;28;1183;-35
2022/10/19 03:10:57;;;;;;;;;;;;;;;27.28;27.24;101175.47;5057531;28;1092;-34
2022/10/19 03:13:22;;;;;;;;;;;;;;;27.01;27.73;101172.94;5070302;28;1258;-35
2022/10/19 03:15:47;;;;;;;;;;;;;;;27.26;27.27;101172.91;5058370;28;949;-34
2022/10/19 03:18:13;;;;;;;;;;;;;;;27.21;27.06;101178.03;5058198;28;1525;-34
2022/10/19 03:20:38;;;;;;;;;;;;;;;27.44;26.86;101164.63;5074478;28;1096;-33
2022/10/19 03:23:03;;;;;;;;;;;;;;;27.43;26.67;101156.66;5078330;28;1973;-34
2022/10/19 03:25:28;;;;;;;;;;;;;;;27.51;26.99;101156.63;5063555;28;1091;-35
2022/10/19 03:27:54;;;;;;;;;;;;;;;27.56;26.78;101154.22;5058233;28;1004;-35
2022/10/19 03:30:19;;;;;;;;;;;;;;;27.53;27.29;101156.47;5058416;28;1080;-34
2022/10/19 03:32:44;;;;;;;;;;;;;;;27.57;27.16;101157.78;5073010;28;2290;-35
2022/10/19 03:35:10;;;;;;;;;;;;;;;27.52;26.96;101158.31;5076472;28;1147;-34
2022/10/19 03:37:35;;;;;;;;;;;;;;;27.51;26.75;101162.88;5060094;28;1174;-34
2022/10/19 03:40:00;;;;;;;;;;;;;;;27.62;26.62;101156.25;5058300;28;918;-34
2022/10/19 03:42:26;;;;;;;;;;;;;;;27.66;26.45;101153.19;5058126;28;1968;-35
2022/10/19 03:44:51;;;;;;;;;;;;;;;26.62;27.68;101155.66;5058194;28;1203;-36
2022/10/19 03:47:16;;;;;;;;;;;;;;;25.87;28.42;101144.78;5058372;28;1124;-37
2022/10/19 03:49:42;;;;;;;;;;;;;;;26.74;27.06;101150.75;5058424;28;1198;-37
2022/10/19 03:52:08;;;;;;;;;;;;;;;27.12;26.11;101145.66;5059237;28;930;-35
2022/10/19 03:54:34;;;;;;;;;;;;;;;27.61;25.72;101145.63;5058400;28;1150;-39
2022/10/19 03:56:59;;;;;;;;;;;;;;;28.50;25.58;101143.53;5059364;28;1163;-37
2022/10/19 03:59:24;;;;;;;;;;;;;;;29.26;24.50;101136.31;5070108;28;1107;-39
2022/10/19 04:01:50;;;;;;;;;;;;;;;29.52;25.10;101129.56;5057633;28;2452;-39
2022/10/19 04:04:16;;;;;;;;;;;;;;;28.52;26.30;101132.53;5062831;28;879;-39
2022/10/19 04:06:41;;;;;;;;;;;;;;;29.06;25.98;101133.38;5066036;28;1178;-40
2022/10/19 04:09:07;;;;;;;;;;;;;;;29.63;25.39;101141.00;5057847;28;1226;-38
2022/10/19 04:11:32;;;;;;;;;;;;;;;29.10;26.26;101145.50;5057506;28;1115;-40
2022/10/19 04:13:58;;;;;;;;;;;;;;;28.53;26.94;101129.63;5057011;28;1285;-40
2022/10/19 04:16:23;;;;;;;;;;;;;;;28.94;26.49;101128.38;5057308;28;986;-38
2022/10/19 04:18:48;;;;;;;;;;;;;;;29.03;26.19;101129.16;5057575;28;1194;-36
2022/10/19 04:21:23;;;;;;;;;;;;;;;29.00;26.12;101129.53;5057449;28;2038;-35
2022/10/19 04:23:48;;;;;;;;;;;;;;;29.08;25.92;101128.56;5057272;28;1124;-37
2022/10/19 04:26:14;;;;;;;;;;;;;;;29.18;25.65;101133.72;5058135;28;1219;-38
2022/10/19 04:28:39;;;;;;;;;;;;;;;27.34;27.08;101134.25;5077423;28;1150;-38
2022/10/19 04:31:04;;;;;;;;;;;;;;;27.61;28.28;101126.69;5062304;28;2533;-36
2022/10/19 04:33:30;;;;;;;;;;;;;;;29.14;25.50;101127.84;5059017;28;1064;-39
2022/10/19 04:36:03;;;;;;;;;;;;;;;29.50;24.50;101125.34;5077278;28;1174;-39
2022/10/19 04:38:29;;;;;;;;;;;;;;;29.46;24.27;101124.91;5064992;28;1174;-38
2022/10/19 04:40:55;;;;;;;;;;;;;;;29.39;24.89;101129.41;5070509;28;1154;-39
2022/10/19 04:43:20;;;;;;;;;;;;;;;29.39;25.14;101124.84;5057037;28;1980;-37
2022/10/19 04:45:45;;;;;;;;;;;;;;;29.33;25.42;101123.72;5061853;28;1164;-37
2022/10/19 04:48:11;;;;;;;;;;;;;;;29.51;25.31;101114.31;5066107;28;1096;-37
2022/10/19 04:50:36;;;;;;;;;;;;;;;28.68;26.02;101112.56;5073034;28;1152;-37
2022/10/19 04:53:01;;;;;;;;;;;;;;;28.40;27.29;101114.03;5068563;28;1095;-37
2022/10/19 04:55:26;;;;;;;;;;;;;;;29.36;25.80;101114.38;5056786;28;1119;-37
2022/10/19 04:57:52;;;;;;;;;;;;;;;29.75;25.42;101117.75;5056535;28;1198;-38
2022/10/19 05:00:17;;;;;;;;;;;;;;;29.93;25.24;101111.88;5056789;28;1072;-38
2022/10/19 05:02:43;;;;;;;;;;;;;;;29.96;24.96;101109.81;5056263;28;2377;-39
2022/10/19 05:05:08;;;;;;;;;;;;;;;29.98;25.13;101102.34;5056590;28;1104;-38
2022/10/19 05:07:34;;;;;;;;;;;;;;;29.04;25.82;101103.75;5056210;28;1151;-38
2022/10/19 05:09:59;;;;;;;;;;;;;;;28.70;27.46;101103.25;5056661;28;1127;-38
2022/10/19 05:12:24;;;;;;;;;;;;;;;29.72;25.95;101111.88;5070400;28;1154;-37
2022/10/19 05:14:50;;;;;;;;;;;;;;;29.90;25.70;101106.00;5059136;28;1104;-37
2022/10/19 05:17:15;;;;;;;;;;;;;;;30.15;25.34;101103.75;5076561;28;1174;-38
2022/10/19 05:19:40;;;;;;;;;;;;;;;30.10;25.39;101106.19;5058130;28;974;-38
2022/10/19 05:22:05;;;;;;;;;;;;;;;29.93;25.49;101109.16;5055959;28;1914;-37
2022/10/19 05:24:31;;;;;;;;;;;;;;;28.43;25.16;101113.66;5070536;28;1069;-37
2022/10/19 05:26:56;;;;;;;;;;;;;;;27.65;27.37;101116.34;5063771;28;1210;-37
2022/10/19 05:29:23;;;;;;;;;;;;;;;28.05;27.74;101119.00;5075990;28;1108;-35
2022/10/19 05:31:48;;;;;;;;;;;;;;;29.04;26.27;101116.44;5061958;28;1863;-36
2022/10/19 05:34:13;;;;;;;;;;;;;;;27.99;27.24;101107.06;5067968;28;1197;-36
2022/10/19 05:36:39;;;;;;;;;;;;;;;27.21;27.99;101114.03;5055946;28;1096;-36
2022/10/19 05:39:06;;;;;;;;;;;;;;;27.34;27.99;101113.47;5056172;28;1187;-37
2022/10/19 05:41:31;;;;;;;;;;;;;;;28.01;28.28;101115.81;5068206;28;1897;-37
2022/10/19 05:43:57;;;;;;;;;;;;;;;27.99;28.88;101116.00;5058498;28;1301;-38
2022/10/19 05:46:22;;;;;;;;;;;;;;;27.89;29.53;101111.84;5056209;28;1195;-36
2022/10/19 05:48:48;;;;;;;;;;;;;;;28.00;29.09;101116.84;5055781;28;1103;-36
2022/10/19 05:51:14;;;;;;;;;;;;;;;27.92;29.24;101112.34;5059848;28;1226;-35
2022/10/19 05:53:39;;;;;;;;;;;;;;;27.72;29.63;101112.81;5076282;28;1286;-36
2022/10/19 05:56:05;;;;;;;;;;;;;;;28.16;29.31;101113.16;5056028;28;1170;-36
2022/10/19 05:58:30;;;;;;;;;;;;;;;27.90;29.29;101118.94;5056025;28;1084;-36
2022/10/19 06:00:56;;;;;;;;;;;;;;;27.92;29.41;101116.91;5070291;28;1097;-35
2022/10/19 06:03:22;;;;;;;;;;;;;;;28.32;29.36;101119.47;5070103;28;2680;-35
2022/10/19 06:05:48;;;;;;;;;;;;;;;28.67;28.66;101127.13;5073711;28;1127;-35
2022/10/19 06:08:13;;;;;;;;;;;;;;;28.37;28.51;101125.22;5056019;28;1187;-36
2022/10/19 06:10:39;;;;;;;;;;;;;;;28.04;29.86;101122.75;5055833;28;1155;-37
2022/10/19 06:13:04;;;;;;;;;;;;;;;28.70;28.80;101124.91;5055575;28;1167;-38
2022/10/19 06:15:31;;;;;;;;;;;;;;;27.92;29.76;101119.59;5062478;28;1176;-37
2022/10/19 06:17:57;;;;;;;;;;;;;;;28.17;29.44;101119.41;5055846;28;1163;-37
2022/10/19 06:20:22;;;;;;;;;;;;;;;28.14;29.73;101123.34;5057343;28;1163;-37
2022/10/19 06:22:47;;;;;;;;;;;;;;;27.39;31.06;101130.00;5059693;28;1981;-37
2022/10/19 06:25:13;;;;;;;;;;;;;;;27.80;30.19;101121.88;5059422;28;1155;-36
2022/10/19 06:27:38;;;;;;;;;;;;;;;27.80;30.52;101127.28;5059361;28;1132;-37
2022/10/19 06:30:04;;;;;;;;;;;;;;;28.24;29.65;101123.91;5059204;28;1194;-40
2022/10/19 06:32:29;;;;;;;;;;;;;;;27.98;30.02;101117.03;5059405;28;2575;-37
2022/10/19 06:34:54;;;;;;;;;;;;;;;27.75;30.56;101114.31;5072653;28;1202;-36
2022/10/19 06:37:19;;;;;;;;;;;;;;;28.14;30.08;101107.13;5079661;28;1276;-38
2022/10/19 06:39:45;;;;;;;;;;;;;;;28.61;29.19;101115.19;5073255;28;1223;-38
2022/10/19 06:42:10;;;;;;;;;;;;;;;29.00;28.77;101113.28;5076038;28;1898;-38
2022/10/19 06:44:35;;;;;;;;;;;;;;;28.31;29.36;101102.38;5059050;28;1159;-37
2022/10/19 06:47:01;;;;;;;;;;;;;;;28.32;29.36;101105.94;5074392;28;1171;-38
2022/10/19 06:49:26;;;;;;;;;;;;;;;27.57;30.75;101101.88;5071925;28;1107;-36
2022/10/19 06:51:51;;;;;;;;;;;;;;;26.90;31.15;101101.28;5064259;28;1211;-36
2022/10/19 06:54:17;;;;;;;;;;;;;;;27.21;30.89;101095.13;5063728;28;1138;-36
2022/10/19 06:56:42;;;;;;;;;;;;;;;27.53;30.17;101097.03;5058861;28;1100;-37
2022/10/19 06:59:07;;;;;;;;;;;;;;;27.71;29.59;101094.91;5058488;28;1208;-36
2022/10/19 07:01:33;;;;;;;;;;;;;;;27.77;29.21;101097.91;5063358;28;2360;-36
2022/10/19 07:03:58;;;;;;;;;;;;;;;27.67;29.68;101098.09;5073337;28;1171;-36
2022/10/19 07:06:24;;;;;;;;;;;;;;;27.27;29.49;101104.41;5058612;28;1140;-36
2022/10/19 07:08:50;;;;;;;;;;;;;;;26.63;29.72;101101.50;5041072;28;1116;-36
2022/10/19 07:11:16;;;;;;;;;;;;;;;26.37;29.96;101097.16;5073568;28;1237;-35
2022/10/19 07:13:42;;;;;;;;;;;;;;;27.12;30.22;101098.88;5057609;28;1194;-35
2022/10/19 07:16:10;;;;;;;;;;;;;;;27.15;29.85;101098.53;5056933;28;1215;-35
2022/10/19 07:18:35;;;;;;;;;;;;;;;27.45;29.55;101093.34;5039545;28;1175;-35
2022/10/19 07:21:02;;;;;;;;;;;;;;;27.49;29.84;101086.53;5057329;28;1183;-36
2022/10/19 07:23:28;;;;;;;;;;;;;;;27.36;29.24;101094.41;5057711;28;1909;-35
2022/10/19 07:25:54;;;;;;;;;;;;;;;26.63;30.16;101092.56;5057691;28;1207;-35
2022/10/19 07:28:20;;;;;;;;;;;;;;;26.58;31.37;101085.00;5063342;28;1128;-37
2022/10/19 07:30:45;;;;;;;;;;;;;;;27.69;29.92;101080.75;5074084;28;1167;-36
2022/10/19 07:33:10;;;;;;;;;;;;;;;28.05;29.56;101081.16;5057007;28;2648;-37
2022/10/19 07:35:36;;;;;;;;;;;;;;;27.98;29.56;101075.63;5075940;28;1156;-36
2022/10/19 07:38:01;;;;;;;;;;;;;;;27.68;29.99;101070.94;5066495;28;1107;-37
2022/10/19 07:40:27;;;;;;;;;;;;;;;27.84;30.30;101063.75;5073682;28;1203;-37
2022/10/19 07:42:52;;;;;;;;;;;;;;;27.77;29.99;101069.03;5068049;28;1906;-37
2022/10/19 07:45:17;;;;;;;;;;;;;;;27.49;30.59;101067.63;5056935;28;1151;-37
2022/10/19 07:47:43;;;;;;;;;;;;;;;27.89;30.18;101066.75;5057039;28;1100;-37
2022/10/19 07:50:08;;;;;;;;;;;;;;;28.21;29.91;101063.97;5069351;28;1120;-38
2022/10/19 07:52:33;;;;;;;;;;;;;;;28.04;29.91;101055.97;5062834;28;1151;-36
2022/10/19 07:54:59;;;;;;;;;;;;;;;28.10;29.92;101057.09;5066054;28;1261;-37
2022/10/19 07:57:25;;;;;;;;;;;;;;;28.47;29.36;101041.91;5056387;28;1194;-37
2022/10/19 07:59:50;;;;;;;;;;;;;;;28.82;29.05;101052.19;5056612;28;1175;-34
2022/10/19 08:02:15;;;;;;;;;;;;;;;28.21;29.59;101050.44;5066434;28;2345;-37
2022/10/19 08:04:41;;;;;;;;;;;;;;;27.91;30.30;101045.75;5064581;28;943;-36
2022/10/19 08:07:06;;;;;;;;;;;;;;;28.59;29.43;101049.56;5064116;28;1175;-35
2022/10/19 08:09:31;;;;;;;;;;;;;;;28.85;28.81;101040.97;5056221;28;1104;-35
2022/10/19 08:11:57;;;;;;;;;;;;;;;28.53;29.06;101040.31;5044100;28;321848;-35
2022/10/19 08:14:22;;;;;;;;;;;;;;;28.29;29.41;101030.56;5040943;28;1212;-34
2022/10/19 08:16:47;;;;;;;;;;;;;;;28.15;29.57;101027.66;5060343;28;1254;-34
2022/10/19 08:19:13;;;;;;;;;;;;;;;28.30;29.46;101021.41;5057221;28;1286;-35
2022/10/19 08:21:39;;;;;;;;;;;;;;;28.24;29.21;101021.13;5072040;28;1980;-33
2022/10/19 08:24:04;;;;;;;;;;;;;;;28.05;29.61;101024.34;5057950;28;1207;-35
2022/10/19 08:26:30;;;;;;;;;;;;;;;28.14;29.53;101022.44;5070193;28;1128;-36
2022/10/19 08:29:02;;;;;;;;;;;;;;;28.20;29.33;101010.88;5068749;28;1207;-36
2022/10/19 08:31:27;;;;;;;;;;;;;;;28.03;29.18;101015.59;5057758;28;2367;-37
2022/10/19 08:33:52;;;;;;;;;;;;;;;27.91;28.77;101010.59;5062035;28;1196;-37
2022/10/19 08:36:21;;;;;;;;;;;;;;;28.06;29.27;101009.84;5076118;28;1179;-36
2022/10/19 08:38:47;;;;;;;;;;;;;;;27.92;28.98;100997.94;5060065;28;1068;-36
2022/10/19 08:41:30;;;;;;;;;;;;;;;27.78;29.47;101002.31;5057020;28;1964;-35
2022/10/19 08:44:14;;;;;;;;;;;;;;;27.69;29.32;100988.00;5038652;28;1128;-35
2022/10/19 08:46:43;;;;;;;;;;;;;;;27.71;29.30;100989.50;5057018;28;1147;-37
2022/10/19 08:49:08;;;;;;;;;;;;;;;27.68;29.59;100984.44;5057336;28;1250;-36
2022/10/19 08:51:36;;;;;;;;;;;;;;;27.79;29.86;100987.75;5039245;28;1388;-35
2022/10/19 08:54:01;;;;;;;;;;;;;;;27.80;29.62;100990.28;5042918;28;1203;-37
2022/10/19 08:56:32;;;;;;;;;;;;;;;27.77;29.92;100981.69;5038772;28;1235;-36
2022/10/19 08:59:07;;;;;;;;;;;;;;;27.70;29.32;100978.84;5039342;28;1204;-35
2022/10/19 09:01:38;;;;;;;;;;;;;;;27.86;29.22;100980.59;5058633;28;1894;-35
2022/10/19 09:04:03;;;;;;;;;;;;;;;27.91;28.24;100975.47;5059251;28;1239;-34
2022/10/19 09:06:49;;;;;;;;;;;;;;;28.08;29.08;100976.16;5059902;28;970;-35
2022/10/19 09:09:14;;;;;;;;;;;;;;;28.32;28.37;100976.09;5035329;28;1209;-35
2022/10/19 09:11:46;;;;;;;;;;;;;;;27.83;29.46;100967.44;5058888;28;1294;-33
2022/10/19 09:14:11;;;;;;;;;;;;;;;27.86;29.31;100970.59;5049755;28;1487;-35
2022/10/19 09:16:37;;;;;;;;;;;;;;;27.54;29.54;100969.00;5058901;28;1302;-34
2022/10/19 09:19:02;;;;;;;;;;;;;;;27.67;28.74;100962.97;5046601;28;1220;-36
2022/10/19 09:21:31;;;;;;;;;;;;;;;27.75;29.05;100958.38;5038492;28;1901;-38
2022/10/19 09:24:09;;;;;;;;;;;;;;;27.68;28.63;100953.84;5056392;28;1207;-36
2022/10/19 09:26:36;;;;;;;;;;;;;;;27.43;28.74;100945.94;5038646;28;1065;-35
2022/10/19 09:29:13;;;;;;;;;;;;;;;27.63;29.05;100936.31;5052006;28;1180;-35
2022/10/19 09:31:39;;;;;;;;;;;;;;;27.62;28.58;100931.94;5056474;28;2333;-35
2022/10/19 09:34:10;;;;;;;;;;;;;;;27.85;29.04;100930.25;5062513;28;1275;-35
2022/10/19 09:36:39;;;;;;;;;;;;;;;28.00;28.87;100922.16;5058726;28;1100;-35
2022/10/19 09:39:04;;;;;;;;;;;;;;;28.01;28.26;100923.81;5038931;28;1235;-35
2022/10/19 09:41:30;;;;;;;;;;;;;;;27.94;28.41;100922.91;5064293;28;1894;-35
2022/10/19 09:43:55;;;;;;;;;;;;;;;27.41;27.65;100913.69;5058136;28;1156;-35
2022/10/19 09:46:29;;;;;;;;;;;;;;;27.32;26.73;100910.25;5076281;28;1144;-34
2022/10/19 09:48:54;;;;;;;;;;;;;;;27.48;27.36;100905.69;5058446;28;1100;-34
2022/10/19 09:51:19;;;;;;;;;;;;;;;27.42;27.10;100906.44;5067869;28;1186;-34
2022/10/19 09:53:45;;;;;;;;;;;;;;;27.98;27.06;100900.72;5065092;28;1132;-35
2022/10/19 09:56:16;;;;;;;;;;;;;;;28.22;27.17;100898.78;5051927;28;1100;-36
2022/10/19 09:58:46;;;;;;;;;;;;;;;28.39;27.16;100895.06;5056166;28;1143;-35
2022/10/19 10:01:11;;;;;;;;;;;;;;;28.28;27.20;100889.06;5057482;28;2222;-36
2022/10/19 10:03:42;;;;;;;;;;;;;;;28.32;27.08;100898.47;5057618;28;1937;-36
2022/10/19 10:06:16;;;;;;;;;;;;;;;28.22;27.70;100889.81;5069330;28;1170;-35
2022/10/19 10:08:45;;;;;;;;;;;;;;;28.18;27.63;100872.25;5064503;28;1122;-36
2022/10/19 10:11:15;;;;;;;;;;;;;;;28.31;27.29;100879.75;5037996;28;1121;-36
2022/10/19 10:13:41;;;;;;;;;;;;;;;28.14;26.87;100873.69;5065440;28;1085;-35
2022/10/19 10:16:07;;;;;;;;;;;;;;;28.26;26.98;100860.53;5041132;28;1266;-35
2022/10/19 10:18:34;;;;;;;;;;;;;;;28.30;27.23;100859.94;5061166;28;888;-34
2022/10/19 10:21:01;;;;;;;;;;;;;;;28.27;27.48;100851.38;5055648;28;1128;-34
2022/10/19 10:23:28;;;;;;;;;;;;;;;28.50;26.46;100855.84;5055959;28;1975;-35
2022/10/19 10:25:56;;;;;;;;;;;;;;;28.30;27.55;100845.56;5069580;28;1183;-34
2022/10/19 10:28:22;;;;;;;;;;;;;;;28.23;27.48;100840.94;5075902;28;1131;-34
2022/10/19 10:30:48;;;;;;;;;;;;;;;28.33;27.14;100846.06;5041560;28;958;-35
2022/10/19 10:33:18;;;;;;;;;;;;;;;28.24;27.52;100834.47;5055385;28;2572;-34
2022/10/19 10:35:52;;;;;;;;;;;;;;;28.42;27.06;100844.09;5038749;28;1054;-36
2022/10/19 10:38:20;;;;;;;;;;;;;;;28.41;27.34;100838.91;5055538;28;1092;-34
2022/10/19 10:40:49;;;;;;;;;;;;;;;28.34;27.33;100828.00;5056077;28;1073;-35
2022/10/19 10:43:15;;;;;;;;;;;;;;;28.46;27.13;100828.34;5037787;28;1969;-36
2022/10/19 10:45:41;;;;;;;;;;;;;;;28.47;27.31;100830.00;5041605;28;1179;-34
2022/10/19 10:48:27;;;;;;;;;;;;;;;28.42;27.61;100818.91;5075949;28;1092;-35
2022/10/19 10:50:52;;;;;;;;;;;;;;;28.42;27.60;100824.31;5056519;28;1127;-35
2022/10/19 10:53:30;;;;;;;;;;;;;;;28.48;27.60;100820.84;5043532;28;1154;-35
2022/10/19 10:55:55;;;;;;;;;;;;;;;28.42;28.05;100805.38;5037364;28;1093;-36
2022/10/19 10:58:24;;;;;;;;;;;;;;;28.51;27.89;100808.81;5050896;28;1247;-35
2022/10/19 11:00:49;;;;;;;;;;;;;;;28.47;27.83;100805.66;5038457;28;1517;-35
2022/10/19 11:03:17;;;;;;;;;;;;;;;28.59;27.34;100798.69;5063560;28;2545;-35
2022/10/19 11:05:43;;;;;;;;;;;;;;;28.59;27.62;100793.28;5074812;28;1231;-35
2022/10/19 11:08:11;;;;;;;;;;;;;;;28.50;27.87;100789.03;5078577;28;1254;-36
2022/10/19 11:10:42;;;;;;;;;;;;;;;28.81;27.03;100784.34;5059272;28;1073;-35
2022/10/19 11:13:09;;;;;;;;;;;;;;;29.03;26.92;100782.47;5059299;28;1072;-36
2022/10/19 11:15:51;;;;;;;;;;;;;;;28.93;26.42;100776.53;5041202;28;1254;-35
2022/10/19 11:18:24;;;;;;;;;;;;;;;28.76;26.96;100768.66;5049905;28;1204;-35
2022/10/19 11:21:07;;;;;;;;;;;;;;;28.75;27.37;100772.41;5049423;28;1157;-34
2022/10/19 11:23:42;;;;;;;;;;;;;;;28.58;26.94;100771.81;5045006;28;1914;-34
2022/10/19 11:26:07;;;;;;;;;;;;;;;28.51;27.29;100760.13;5067953;28;1227;-35
2022/10/19 11:28:51;;;;;;;;;;;;;;;28.52;27.19;100768.03;5063246;28;1119;-35
2022/10/19 11:31:32;;;;;;;;;;;;;;;28.60;27.15;100761.66;5073507;28;2397;-35
2022/10/19 11:33:58;;;;;;;;;;;;;;;28.31;27.61;100771.53;5072275;28;1187;-34
2022/10/19 11:36:43;;;;;;;;;;;;;;;28.44;27.23;100766.31;5078652;28;1147;-34
2022/10/19 11:39:08;;;;;;;;;;;;;;;28.43;27.25;100761.91;5058297;28;1242;-34
2022/10/19 11:41:42;;;;;;;;;;;;;;;28.38;27.58;100748.09;5059486;28;1878;-34
2022/10/19 11:44:14;;;;;;;;;;;;;;;28.32;27.65;100765.09;5062144;28;1147;-34
2022/10/19 11:46:58;;;;;;;;;;;;;;;28.26;27.74;100753.16;5054360;28;1235;-36
2022/10/19 11:49:28;;;;;;;;;;;;;;;28.12;28.11;100749.47;5058317;28;1115;-36
2022/10/19 11:51:57;;;;;;;;;;;;;;;28.07;28.09;100751.91;5040663;28;1140;-36
2022/10/19 11:54:31;;;;;;;;;;;;;;;28.00;28.15;100741.00;5064768;28;1116;-34
2022/10/19 11:56:58;;;;;;;;;;;;;;;28.06;28.29;100748.34;5048037;28;1190;-34
2022/10/19 11:59:33;;;;;;;;;;;;;;;28.02;28.02;100749.75;5040555;28;1136;-34
2022/10/19 12:01:58;;;;;;;;;;;;;;;27.97;27.93;100736.81;5050478;28;1957;-33
2022/10/19 12:04:42;;;;;;;;;;;;;;;27.94;28.16;100745.31;5058578;28;1222;-34
2022/10/19 12:07:07;;;;;;;;;;;;;;;27.92;28.41;100733.84;5070536;28;1121;-34
2022/10/19 12:09:39;;;;;;;;;;;;;;;28.01;28.32;100731.84;5073016;28;1155;-34
2022/10/19 12:12:04;;;;;;;;;;;;;;;27.95;28.24;100736.16;5052106;28;1120;-34
2022/10/19 12:14:31;;;;;;;;;;;;;;;28.09;28.19;100730.91;5077806;28;1215;-34
2022/10/19 12:16:57;;;;;;;;;;;;;;;27.94;28.30;100723.69;5058786;28;1271;-34
2022/10/19 12:19:27;;;;;;;;;;;;;;;27.95;28.71;100724.50;5059131;28;1172;-35
2022/10/19 12:21:54;;;;;;;;;;;;;;;28.14;27.34;100728.50;5074267;28;1910;-37
2022/10/19 12:24:20;;;;;;;;;;;;;;;27.95;25.89;100728.06;5059637;28;1214;-37
2022/10/19 12:26:45;;;;;;;;;;;;;;;27.83;27.58;100716.88;5064756;28;1126;-34
2022/10/19 12:29:12;;;;;;;;;;;;;;;27.78;27.76;100721.19;5053232;28;1181;-36
2022/10/19 12:31:38;;;;;;;;;;;;;;;27.82;27.87;100712.50;5050256;28;1881;-35
2022/10/19 12:34:14;;;;;;;;;;;;;;;27.90;27.82;100713.41;5059738;28;1152;-35
2022/10/19 12:36:45;;;;;;;;;;;;;;;27.80;27.36;100706.44;5059961;28;1111;-36
2022/10/19 12:39:21;;;;;;;;;;;;;;;27.66;28.06;100694.59;5077282;28;1361;-34
2022/10/19 12:41:55;;;;;;;;;;;;;;;27.47;28.38;100701.41;5063704;28;1898;-34
2022/10/19 12:44:26;;;;;;;;;;;;;;;27.42;28.56;100693.88;5057353;28;1057;-36
2022/10/19 12:46:52;;;;;;;;;;;;;;;27.77;28.12;100700.59;5071370;28;1223;-35
2022/10/19 12:49:27;;;;;;;;;;;;;;;27.56;28.33;100694.06;5048364;28;1338;-35